Rodney Mitchell — WCV8372 — position and weather

sailwx.info

Track history (hours):
 
Tides and Currents Weather Stations Pressure Air Temp Water Temp Dewpoint Dewpoint Depression Visibility Wind Speed Wind Dir Waves Ship Positions

Rodney Mitchell

Owner: VINTON CROSBY INC, GOLDEN MEADOW, LA. More information available from US FCC via Universal Licensing System and Coast Guard Vessel Documentation Center.

Last reported at 2015-Jul-31 17:26 UTC. Time now 2015-Jul-31 21:28 UTC.
Position N 29°46' W 095°06'.

; draft 3 m.

Type: Towing. MMSI: 367028860.

Date/timePositionNaut miles runAvg speedWind from/ knotsBaromVisibWave heightAir tempDewpointWater temp
2015-Jul-31 17:26N 29°46' W 095°06'1 0.4
2015-Jul-31 16:06N 29°46' W 095°06'3 4.6
2015-Jul-31 15:33N 29°44' W 095°03'5 5.3
2015-Jul-31 14:33N 29°41' W 094°59'6 5.7
2015-Jul-31 13:33N 29°35' W 094°56'6 6.0
2015-Jul-31 12:34N 29°31' W 094°53'8 7.2
2015-Jul-31 11:31N 29°24' W 094°49'60 2.6
2015-Jul-30 12:32N 29°59' W 093°52'  
2015-Jul-24 04:26N 29°30' W 094°52'4 5.0
2015-Jul-24 03:33N 29°33' W 094°55'5 5.1
2015-Jul-24 02:33N 29°38' W 094°58'5 5.2
2015-Jul-24 01:33N 29°42' W 095°01'5 5.1
2015-Jul-24 00:33N 29°46' W 095°05'5 5.1
2015-Jul-23 23:32N 29°45' W 095°11'4 0.3
2015-Jul-23 13:08N 29°43' W 095°14'0 0.0
2015-Jul-22 18:13N 29°43' W 095°14'3 3.2
2015-Jul-22 17:25N 29°44' W 095°12'4 4.2
2015-Jul-22 16:33N 29°44' W 095°08'4 4.2
2015-Jul-22 15:34N 29°47' W 095°04'1 0.7
2015-Jul-22 14:32N 29°47' W 095°04'0 0.0
2015-Jul-22 07:18N 29°48' W 095°04'0 0.0
2015-Jul-22 04:22N 29°48' W 095°04'0 0.1
2015-Jul-22 02:34N 29°47' W 095°04'4 2.8
2015-Jul-22 01:12N 29°44' W 095°06'4 5.4
2015-Jul-22 00:32N 29°45' W 095°11'  
Track history (hours):
 
Tides and Currents Weather Stations Pressure Air Temp Water Temp Dewpoint Dewpoint Depression Visibility Wind Speed Wind Dir Waves Ship Positions

Rodney Mitchell

Owner: VINTON CROSBY INC, GOLDEN MEADOW, LA. More information available from US FCC via Universal Licensing System and Coast Guard Vessel Documentation Center.

Last reported at 2015-Jul-31 17:26 UTC. Time now 2015-Jul-31 21:28 UTC.
Position N 29°46' W 095°06'.

; draft 3 m.

Type: Towing. MMSI: 367028860.

Date/timePositionNaut miles runAvg speedWind from/ knotsBaromVisibWave heightAir tempDewpointWater temp
2015-Jul-31 17:26N 29°46' W 095°06'1 0.4
2015-Jul-31 16:06N 29°46' W 095°06'3 4.6
2015-Jul-31 15:33N 29°44' W 095°03'5 5.3
2015-Jul-31 14:33N 29°41' W 094°59'6 5.7
2015-Jul-31 13:33N 29°35' W 094°56'6 6.0
2015-Jul-31 12:34N 29°31' W 094°53'8 7.2
2015-Jul-31 11:31N 29°24' W 094°49'60 2.6
2015-Jul-30 12:32N 29°59' W 093°52'  
2015-Jul-24 04:26N 29°30' W 094°52'4 5.0
2015-Jul-24 03:33N 29°33' W 094°55'5 5.1
2015-Jul-24 02:33N 29°38' W 094°58'5 5.2
2015-Jul-24 01:33N 29°42' W 095°01'5 5.1
2015-Jul-24 00:33N 29°46' W 095°05'5 5.1
2015-Jul-23 23:32N 29°45' W 095°11'4 0.3
2015-Jul-23 13:08N 29°43' W 095°14'0 0.0
2015-Jul-22 18:13N 29°43' W 095°14'3 3.2
2015-Jul-22 17:25N 29°44' W 095°12'4 4.2
2015-Jul-22 16:33N 29°44' W 095°08'4 4.2
2015-Jul-22 15:34N 29°47' W 095°04'1 0.7
2015-Jul-22 14:32N 29°47' W 095°04'0 0.0
2015-Jul-22 07:18N 29°48' W 095°04'0 0.0
2015-Jul-22 04:22N 29°48' W 095°04'0 0.1
2015-Jul-22 02:34N 29°47' W 095°04'4 2.8
2015-Jul-22 01:12N 29°44' W 095°06'4 5.4
2015-Jul-22 00:32N 29°45' W 095°11'  

Dump ship's entire track history